Cooperstown, North Dakota
Current Conditions -  °F | °C
As of 2:35 AM on Friday 28 Nov 2014 (Local Time) from KBAC Reporting Station
Overcast Overcast  
Wind Chill: -10°   Ceiling: 500
Heat Index:   Visibility: 10mi
Dew Point:   Wind: 14mph
Humidity: 92%   Direction: 130°SE
Pressure: 29.95"   Gusts: NA
Location:  47.44°N, 98.12°W
Report Text: KBAC 280835Z AUTO 13012KT 10SM BKN005 OVC033 M14/M15 A2995 RMK AO2
Loading
Personal Weather Stations






























Interactive Weather Map New forecast layout! Learn more

10-Day Weather Forecast

Advertisements
Track Severe Weather on mobile